»·PEaware :: WAT426 KSEA-KSJC

WAT426 :: KSEA-KSJC

FLIGHT INFORMATION

Flight Status: Arrived
Operator:
Walker Air Transport
More flights by this operator :: More flights under this callsign
Pilot: Anonymous 29304 (29304)
Aircraft: BEECH AIRCRAFT PREMIER
(PRM1)
More flights by this aircraft type
Origin: KSEA Seattle-Tacoma Intl
United States
Destination: KSJC Mineta San Jose Intl
United States
More flights between these airports :: More routes between these airports
Route: HAROB6 HISKU Q5 HUPTU CHBLI BRIXX2
File this flight plan on PilotEdge
Remarks:
Altitude:
(Current/Filed)
33,000ft
Speed:
(Current/Filed)
340kts
Departed: 26-Jan-21 08:42 AM
Arrived: 26-Jan-21 10:40 AM
Distance/Time
Traveled:
605nm/1:58
Distance/Time
To Go:
Arrived

Flight Plot

Page will automatically refresh every two minutes.

Flight plan parsing failed; only flown route is shown


Map Options




Map Legend


Flown Route
Filed Route
Departure Airport
Arrival Airport
Navaid (VOR, NDB)
Fix

Horizontal Profiles

Position Reports

Time Latitude Longitude Heading Altitude Ground
Speed
26-Jan-21 08:13 47.439001 -122.315073 55 354ft 0kts
26-Jan-21 08:14 47.439001 -122.315073 55 354ft 0kts
26-Jan-21 08:15 47.439001 -122.315073 55 354ft 0kts
26-Jan-21 08:16 47.439001 -122.315073 55 354ft 0kts
26-Jan-21 08:17 47.439001 -122.315073 55 354ft 0kts
26-Jan-21 08:18 47.439001 -122.315073 55 354ft 0kts
26-Jan-21 08:19 47.439001 -122.315073 55 354ft 0kts
26-Jan-21 08:20 47.439001 -122.315073 55 354ft 0kts
26-Jan-21 08:21 47.439001 -122.315073 55 354ft 0kts
26-Jan-21 08:22 47.439001 -122.315073 55 354ft 0kts
26-Jan-21 08:24 47.439001 -122.315073 55 354ft 0kts
26-Jan-21 08:25 47.439001 -122.315073 55 354ft 0kts
26-Jan-21 08:26 47.439001 -122.315073 55 354ft 0kts
26-Jan-21 08:27 47.439001 -122.315073 55 354ft 0kts
26-Jan-21 08:29 47.439001 -122.315073 55 354ft 0kts
26-Jan-21 08:30 47.439001 -122.315073 55 354ft 0kts
26-Jan-21 08:31 47.439001 -122.315073 55 354ft 0kts
26-Jan-21 08:32 47.439001 -122.315073 55 354ft 0kts
26-Jan-21 08:33 47.439001 -122.315073 55 354ft 0kts
26-Jan-21 08:34 47.439001 -122.315073 55 354ft 0kts
26-Jan-21 08:35 47.439001 -122.315073 55 354ft 0kts
26-Jan-21 08:36 47.439429 -122.314084 54 357ft 5kts
26-Jan-21 08:37 47.441304 -122.313613 1 365ft 16kts
26-Jan-21 08:38 47.448247 -122.313539 1 395ft 24kts
26-Jan-21 08:41 47.463673 -122.312551 91 379ft 1kts
26-Jan-21 08:42 47.458064 -122.310983 180 423ft 108kts
26-Jan-21 08:43 47.406828 -122.312766 180 3081ft 208kts
26-Jan-21 08:44 47.324672 -122.333736 224 8164ft 219kts
26-Jan-21 08:46 47.307817 -122.474095 268 12184ft 257kts
26-Jan-21 08:47 47.310870 -122.582384 268 14898ft 270kts
26-Jan-21 08:48 47.314148 -122.700424 267 17226ft 270kts
26-Jan-21 08:49 47.305560 -122.808623 246 19498ft 271kts
26-Jan-21 08:51 47.249084 -123.019026 242 22766ft 306kts
26-Jan-21 08:52 47.179509 -123.111795 218 25244ft 291kts
26-Jan-21 08:53 47.124502 -123.171572 219 26432ft 298kts
26-Jan-21 08:54 47.047599 -123.215036 180 27743ft 320kts
26-Jan-21 08:57 46.772291 -123.184864 184 31028ft 340kts
26-Jan-21 08:58 46.677070 -123.174261 184 32033ft 341kts
26-Jan-21 08:59 46.581673 -123.164018 186 32744ft 352kts
26-Jan-21 09:00 46.480018 -123.153035 182 32783ft 380kts
26-Jan-21 09:01 46.333101 -123.129655 177 35250ft 345kts
26-Jan-21 09:03 46.193410 -123.117210 190 36730ft 326kts
26-Jan-21 09:04 46.099165 -123.111746 183 36748ft 347kts
26-Jan-21 09:05 45.984400 -123.098638 184 36769ft 367kts
26-Jan-21 09:06 45.882783 -123.088198 184 38089ft 343kts
26-Jan-21 09:07 45.803590 -123.079669 183 38447ft 347kts
26-Jan-21 09:07 45.723921 -123.071222 183 38807ft 351kts
26-Jan-21 09:10 45.486912 -123.046297 182 38794ft 372kts
26-Jan-21 09:11 45.400999 -123.036938 182 38783ft 372kts
26-Jan-21 09:12 45.299786 -123.026447 184 38798ft 371kts
26-Jan-21 09:12 45.214184 -123.017690 184 38772ft 373kts
26-Jan-21 09:15 44.992414 -122.994688 187 38747ft 364kts
26-Jan-21 09:16 44.892545 -122.984231 188 38747ft 358kts
26-Jan-21 09:17 44.778494 -122.972577 187 38750ft 350kts
26-Jan-21 09:17 44.714529 -122.965891 188 38745ft 344kts
26-Jan-21 09:18 44.619390 -122.956285 189 38740ft 341kts
26-Jan-21 09:21 44.418429 -122.940833 192 38770ft 326kts
26-Jan-21 09:22 44.327781 -122.938794 192 38770ft 325kts
26-Jan-21 09:23 44.238093 -122.936080 191 38750ft 322kts
26-Jan-21 09:24 44.133321 -122.932907 193 38744ft 326kts
26-Jan-21 09:25 43.979623 -122.928383 190 38749ft 338kts
26-Jan-21 09:26 43.884859 -122.925332 191 38753ft 344kts
26-Jan-21 09:27 43.788757 -122.922503 192 38750ft 348kts
26-Jan-21 09:29 43.675414 -122.918998 190 38740ft 353kts
26-Jan-21 09:29 43.593498 -122.916538 189 38761ft 356kts
26-Jan-21 09:31 43.461000 -122.912665 190 38788ft 361kts
26-Jan-21 09:32 43.343319 -122.909098 189 38801ft 366kts
26-Jan-21 09:34 43.172411 -122.904053 190 38814ft 372kts
26-Jan-21 09:34 43.085664 -122.901467 190 38806ft 376kts
26-Jan-21 09:35 42.980545 -122.898383 190 38825ft 380kts
26-Jan-21 09:36 42.873576 -122.895223 190 38852ft 389kts
26-Jan-21 09:38 42.745822 -122.891496 190 38855ft 398kts
26-Jan-21 09:39 42.559166 -122.886104 189 38848ft 410kts
26-Jan-21 09:41 42.406018 -122.881703 189 38851ft 418kts
26-Jan-21 09:42 42.308653 -122.878896 189 38866ft 423kts
26-Jan-21 09:43 42.190373 -122.875442 189 38859ft 428kts
26-Jan-21 09:44 42.070846 -122.872058 188 38858ft 433kts
26-Jan-21 09:45 41.950203 -122.868626 189 38888ft 437kts
26-Jan-21 09:46 41.828251 -122.865217 188 38876ft 442kts
26-Jan-21 09:47 41.705274 -122.861762 188 38879ft 445kts
26-Jan-21 09:48 41.560371 -122.857657 188 38875ft 449kts
26-Jan-21 09:49 41.435690 -122.854070 188 38884ft 451kts
26-Jan-21 09:50 41.330858 -122.851312 188 38888ft 453kts
26-Jan-21 09:51 41.204666 -122.843850 186 38887ft 457kts
26-Jan-21 09:52 41.077615 -122.835908 186 38914ft 458kts
26-Jan-21 09:53 40.950524 -122.828365 185 39027ft 459kts
26-Jan-21 09:55 40.695181 -122.813277 185 39017ft 462kts
26-Jan-21 09:56 40.545755 -122.804385 185 39021ft 461kts
26-Jan-21 09:57 40.375680 -122.794489 185 39026ft 460kts
26-Jan-21 09:58 40.290334 -122.789658 186 39016ft 462kts
26-Jan-21 09:59 40.137854 -122.780985 185 37998ft 481kts
26-Jan-21 10:00 40.026172 -122.774441 185 37220ft 482kts
26-Jan-21 10:01 39.914868 -122.767898 185 36470ft 481kts
26-Jan-21 10:02 39.781606 -122.760291 185 35481ft 478kts
26-Jan-21 10:03 39.605646 -122.750169 186 34133ft 474kts
26-Jan-21 10:04 39.474309 -122.738269 179 33144ft 476kts
26-Jan-21 10:05 39.366125 -122.715248 177 32344ft 471kts
26-Jan-21 10:06 39.259696 -122.691003 177 31534ft 462kts
26-Jan-21 10:07 39.135630 -122.663407 177 30560ft 443kts
26-Jan-21 10:08 39.017042 -122.637307 178 29601ft 422kts
26-Jan-21 10:09 38.900268 -122.611870 176 28674ft 433kts
26-Jan-21 10:10 38.756223 -122.580488 175 28030ft 457kts
26-Jan-21 10:11 38.588646 -122.544164 176 28034ft 459kts
26-Jan-21 10:13 38.400226 -122.533047 183 25186ft 435kts
26-Jan-21 10:14 38.282845 -122.529118 184 22882ft 406kts
26-Jan-21 10:15 38.105991 -122.523377 184 21327ft 363kts
26-Jan-21 10:17 37.975029 -122.515579 181 18926ft 336kts
26-Jan-21 10:18 37.883499 -122.508605 181 17050ft 326kts
26-Jan-21 10:19 37.749870 -122.498352 175 14208ft 318kts
26-Jan-21 10:21 37.622692 -122.380378 146 12007ft 301kts
26-Jan-21 10:22 37.572672 -122.350288 159 12003ft 299kts
26-Jan-21 10:23 37.495465 -122.309876 160 11979ft 301kts
26-Jan-21 10:24 37.387355 -122.252944 160 11979ft 262kts
26-Jan-21 10:26 37.291234 -122.198986 145 11985ft 243kts
26-Jan-21 10:28 37.214402 -122.052477 114 11415ft 217kts
26-Jan-21 10:29 37.192466 -121.993178 114 10264ft 230kts
26-Jan-21 10:30 37.169519 -121.933853 114 8889ft 224kts
26-Jan-21 10:31 37.193014 -121.895992 331 6984ft 193kts
26-Jan-21 10:32 37.238051 -121.933302 328 4977ft 194kts
26-Jan-21 10:33 37.281650 -121.965464 328 3979ft 153kts
26-Jan-21 10:34 37.321820 -121.995163 320 3993ft 175kts
26-Jan-21 10:35 37.362101 -122.034628 318 3318ft 200kts
26-Jan-21 10:36 37.404717 -122.048715 50 2401ft 160kts
26-Jan-21 10:37 37.421902 -122.007650 80 1567ft 124kts
26-Jan-21 10:38 37.404952 -121.975753 144 1050ft 115kts
26-Jan-21 10:39 37.381488 -121.950491 141 380ft 108kts
26-Jan-21 10:40 37.363514 -121.930778 142 49ft 26kts
26-Jan-21 10:41 37.361973 -121.931051 228 50ft 7kts
26-Jan-21 10:42 37.361093 -121.933889 266 52ft 9kts
26-Jan-21 10:43 37.361602 -121.934937 55 50ft 0kts
26-Jan-21 10:44 37.361602 -121.934937 55 50ft 0kts
26-Jan-21 10:45 37.361602 -121.934937 55 50ft 0kts
26-Jan-21 10:46 37.361602 -121.934937 55 50ft 0kts
26-Jan-21 10:47 37.361602 -121.934937 55 50ft 0kts
26-Jan-21 10:48 37.361602 -121.934937 55 50ft 0kts

Navigation Log

Ident Type
Flight plan parsing failed, navigation log unavailable